createdAt,value
2022-09-07T00:01:01.370Z,3.70
2022-09-07T00:03:29.145Z,4.03
2022-09-07T00:05:56.886Z,3.60
2022-09-07T00:08:27.260Z,3.55
2022-09-07T00:10:55.949Z,3.85
2022-09-07T00:13:24.220Z,3.15
2022-09-07T00:15:51.640Z,3.13
2022-09-07T00:18:19.255Z,3.55
2022-09-07T00:20:46.689Z,3.10
2022-09-07T00:23:14.187Z,3.90
2022-09-07T00:25:41.592Z,3.95
2022-09-07T00:28:09.701Z,3.90
2022-09-07T00:30:41.862Z,4.28
2022-09-07T00:33:09.957Z,4.57
2022-09-07T00:35:43.887Z,4.10
2022-09-07T00:38:11.566Z,3.80
2022-09-07T00:40:38.852Z,4.00
2022-09-07T00:43:07.112Z,3.92
2022-09-07T00:45:34.746Z,3.80
2022-09-07T00:48:02.120Z,4.43
2022-09-07T00:50:44.352Z,4.60
2022-09-07T00:53:15.345Z,3.97
2022-09-07T00:55:45.251Z,3.70
2022-09-07T00:58:15.705Z,4.05
2022-09-07T01:00:45.601Z,3.75
2022-09-07T01:03:13.177Z,3.67
2022-09-07T01:05:49.255Z,3.70
2022-09-07T01:08:17.055Z,3.70
2022-09-07T01:10:44.485Z,3.97
2022-09-07T01:13:11.804Z,4.05
2022-09-07T01:15:59.506Z,4.07
2022-09-07T01:18:59.328Z,4.35
2022-09-07T01:21:26.620Z,3.80
2022-09-07T01:24:03.655Z,4.10
2022-09-07T01:26:39.125Z,3.40
2022-09-07T01:29:16.868Z,3.67
2022-09-07T01:31:50.223Z,3.80
2022-09-07T01:34:25.789Z,3.33
2022-09-07T01:36:56.165Z,4.28
2022-09-07T01:39:26.138Z,3.53
2022-09-07T01:41:55.525Z,3.33
2022-09-07T01:44:26.247Z,2.95
2022-09-07T01:46:58.281Z,2.92
2022-09-07T01:49:36.676Z,3.20
2022-09-07T01:52:05.867Z,2.80
2022-09-07T01:54:35.656Z,2.85
2022-09-07T01:57:05.263Z,2.60
2022-09-07T01:59:40.046Z,2.45
2022-09-07T02:02:07.633Z,2.30
2022-09-07T02:04:44.168Z,2.45
2022-09-07T02:07:37.934Z,2.42
2022-09-07T02:10:10.181Z,2.80
2022-09-07T02:12:48.513Z,2.28
2022-09-07T02:15:22.525Z,2.42
2022-09-07T02:17:53.218Z,2.45
2022-09-07T02:20:24.336Z,2.42
2022-09-07T02:22:57.413Z,2.20
2022-09-07T02:25:26.973Z,2.10
2022-09-07T02:27:57.327Z,2.00
2022-09-07T02:30:24.684Z,2.22
2022-09-07T02:32:52.157Z,2.50
2022-09-07T02:35:19.739Z,2.22
2022-09-07T02:37:48.161Z,2.05
2022-09-07T02:40:15.437Z,1.85
2022-09-07T02:42:43.656Z,2.42
2022-09-07T02:45:12.323Z,2.28
2022-09-07T02:47:48.840Z,2.38
2022-09-07T02:50:22.342Z,2.25
2022-09-07T02:53:04.007Z,2.53
2022-09-07T02:55:37.464Z,2.63
2022-09-07T02:58:13.559Z,2.40
2022-09-07T03:00:45.813Z,2.38
2022-09-07T03:03:22.360Z,2.38
2022-09-07T03:06:01.158Z,2.33
2022-09-07T03:08:34.701Z,2.70
2022-09-07T03:11:02.243Z,2.30
2022-09-07T03:13:30.483Z,2.47
2022-09-07T03:15:58.164Z,2.22
2022-09-07T03:18:26.729Z,2.70
2022-09-07T03:20:54.316Z,2.75
2022-09-07T03:23:21.979Z,2.17
2022-09-07T03:25:49.303Z,2.50
2022-09-07T03:28:16.682Z,2.80
2022-09-07T03:30:44.504Z,2.67
2022-09-07T03:33:12.100Z,2.50
2022-09-07T03:35:39.429Z,2.47
2022-09-07T03:38:06.814Z,2.95
2022-09-07T03:40:34.205Z,2.70
2022-09-07T03:43:01.901Z,2.70
2022-09-07T03:45:29.210Z,2.78
2022-09-07T03:47:56.658Z,2.63
2022-09-07T03:50:24.231Z,2.80
2022-09-07T03:52:52.733Z,2.97
2022-09-07T03:55:19.987Z,2.90
2022-09-07T03:57:47.288Z,2.65
2022-09-07T04:00:15.082Z,2.83
2022-09-07T04:02:42.801Z,3.08
2022-09-07T04:05:10.612Z,2.45
2022-09-07T04:07:39.141Z,2.75
2022-09-07T04:10:06.615Z,2.78
2022-09-07T04:12:34.070Z,2.80
2022-09-07T04:15:01.370Z,2.88
2022-09-07T04:17:28.775Z,3.00
2022-09-07T04:19:56.308Z,3.20
2022-09-07T04:22:23.690Z,3.30
2022-09-07T04:24:51.092Z,3.00
2022-09-07T04:27:18.394Z,3.22
2022-09-07T04:29:48.375Z,3.00
2022-09-07T04:32:16.152Z,3.05
2022-09-07T04:34:43.492Z,3.35
2022-09-07T04:37:10.964Z,3.28
2022-09-07T04:39:38.974Z,3.13
2022-09-07T04:42:06.391Z,3.83
2022-09-07T04:44:33.680Z,3.63
2022-09-07T04:47:00.971Z,3.85
2022-09-07T04:49:28.496Z,3.40
2022-09-07T04:51:55.933Z,3.70
2022-09-07T04:54:23.245Z,3.20
2022-09-07T04:56:54.564Z,3.72
2022-09-07T04:59:21.903Z,3.40
2022-09-07T05:01:49.531Z,3.72
2022-09-07T05:04:16.808Z,3.90
2022-09-07T05:06:44.197Z,3.53
2022-09-07T05:09:11.575Z,3.50
2022-09-07T05:11:38.838Z,3.60
2022-09-07T05:14:06.457Z,3.47
2022-09-07T05:16:35.253Z,3.40
2022-09-07T05:19:03.836Z,3.25
2022-09-07T05:21:32.825Z,15.80
2022-09-07T05:24:01.051Z,11.90
2022-09-07T05:26:30.336Z,6.93
2022-09-07T05:31:45.807Z,3.13
2022-09-07T05:36:56.459Z,3.35
2022-09-07T05:39:23.838Z,2.70
2022-09-07T05:41:51.333Z,3.15
2022-09-07T05:47:06.869Z,2.70
2022-09-07T05:49:34.703Z,2.80
2022-09-07T05:52:01.998Z,2.58
2022-09-07T05:54:29.440Z,2.72
2022-09-07T05:56:56.860Z,2.50
2022-09-07T05:59:24.178Z,3.33
2022-09-07T06:01:51.668Z,3.30
2022-09-07T06:04:19.325Z,2.92
2022-09-07T06:07:04.631Z,2.80
2022-09-07T06:09:34.392Z,3.08
2022-09-07T06:12:05.419Z,2.90
2022-09-07T06:14:33.342Z,3.88
2022-09-07T06:17:01.537Z,3.22
2022-09-07T06:19:28.927Z,3.20
2022-09-07T06:21:56.429Z,3.00
2022-09-07T06:24:23.722Z,3.72
2022-09-07T06:26:52.214Z,3.10
2022-09-07T06:29:19.727Z,2.80
2022-09-07T06:34:34.561Z,3.13
2022-09-07T06:37:01.847Z,3.03
2022-09-07T06:39:29.319Z,3.17
2022-09-07T06:44:25.401Z,3.00
2022-09-07T06:49:27.342Z,2.90
2022-09-07T06:51:55.604Z,3.53
2022-09-07T06:57:10.237Z,3.63
2022-09-07T06:59:38.117Z,3.22
2022-09-07T07:02:06.567Z,3.05
2022-09-07T07:04:38.013Z,3.17
2022-09-07T07:07:11.102Z,2.97
2022-09-07T07:09:39.037Z,3.58
2022-09-07T07:12:06.584Z,3.05
2022-09-07T07:14:38.423Z,3.38
2022-09-07T07:17:07.449Z,3.10
2022-09-07T07:19:35.023Z,3.25
2022-09-07T07:22:18.354Z,3.42
2022-09-07T07:24:49.934Z,3.00
2022-09-07T07:27:17.820Z,2.85
2022-09-07T07:29:45.974Z,3.13
2022-09-07T07:32:13.649Z,3.15
2022-09-07T07:34:40.931Z,3.08
2022-09-07T07:37:09.911Z,3.13
2022-09-07T07:42:24.707Z,3.20
2022-09-07T07:47:39.577Z,3.80
2022-09-07T07:55:44.093Z,3.30
2022-09-07T07:58:12.040Z,3.25
2022-09-07T08:00:56.973Z,2.97
2022-09-07T08:03:25.696Z,3.40
2022-09-07T08:05:53.991Z,3.10
2022-09-07T08:08:21.762Z,2.85
2022-09-07T08:10:49.499Z,2.75
2022-09-07T08:13:17.948Z,3.17
2022-09-07T08:15:48.441Z,3.13
2022-09-07T08:18:16.847Z,2.85
2022-09-07T08:20:44.469Z,2.97
2022-09-07T08:23:12.200Z,3.15
2022-09-07T08:25:39.718Z,3.08
2022-09-07T08:28:07.109Z,3.40
2022-09-07T08:30:34.518Z,2.90
2022-09-07T08:33:01.787Z,3.15
2022-09-07T08:35:29.272Z,3.10
2022-09-07T08:37:56.565Z,2.75
2022-09-07T08:40:24.089Z,3.30
2022-09-07T08:43:04.910Z,3.60
2022-09-07T08:45:37.552Z,3.10
2022-09-07T08:48:05.796Z,3.10
2022-09-07T08:50:40.080Z,2.90
2022-09-07T08:53:10.852Z,2.88
2022-09-07T08:55:44.122Z,2.90
2022-09-07T08:58:48.341Z,2.70
2022-09-07T09:04:18.815Z,3.22
2022-09-07T09:07:05.838Z,2.92
2022-09-07T09:09:52.006Z,3.10
2022-09-07T09:12:19.238Z,3.08
2022-09-07T09:14:56.023Z,2.85
2022-09-07T09:17:23.265Z,2.95
2022-09-07T09:19:50.618Z,2.72
2022-09-07T09:22:22.275Z,2.47
2022-09-07T09:24:52.684Z,2.85
2022-09-07T09:27:19.920Z,2.58
2022-09-07T09:29:47.332Z,2.65
2022-09-07T09:32:33.532Z,2.70
2022-09-07T09:35:01.815Z,2.67
2022-09-07T09:37:39.821Z,2.20
2022-09-07T09:40:09.436Z,2.85
2022-09-07T09:42:38.997Z,2.33
2022-09-07T09:45:14.860Z,2.67
2022-09-07T09:47:47.967Z,3.25
2022-09-07T09:53:23.943Z,2.85
2022-09-07T09:55:53.017Z,2.47
2022-09-07T10:01:22.654Z,2.97
2022-09-07T10:06:21.198Z,3.13
2022-09-07T10:09:06.871Z,2.35
2022-09-07T10:14:58.651Z,2.75
2022-09-07T10:17:36.300Z,2.38
2022-09-07T10:20:16.201Z,2.70
2022-09-07T10:22:50.946Z,2.38
2022-09-07T10:25:28.019Z,2.40
2022-09-07T10:28:03.124Z,2.20
2022-09-07T10:30:33.063Z,2.08
2022-09-07T10:33:06.644Z,2.20
2022-09-07T10:35:46.254Z,2.13
2022-09-07T10:38:16.581Z,1.80
2022-09-07T10:41:03.822Z,1.95
2022-09-07T10:43:43.366Z,1.98
2022-09-07T10:49:29.836Z,1.95
2022-09-07T10:52:20.449Z,1.83
2022-09-07T10:55:01.070Z,1.83
2022-09-07T10:57:34.467Z,2.30
2022-09-07T11:00:14.490Z,1.95
2022-09-07T11:05:49.404Z,1.67
2022-09-07T11:08:19.889Z,1.73
2022-09-07T11:10:53.511Z,1.85
2022-09-07T11:13:24.867Z,1.80
2022-09-07T11:16:00.910Z,1.58
2022-09-07T11:18:34.688Z,1.60
2022-09-07T11:21:05.417Z,2.03
2022-09-07T11:23:32.806Z,1.70
2022-09-07T11:26:12.045Z,1.83
2022-09-07T11:28:39.782Z,1.55
2022-09-07T11:31:11.504Z,1.70
2022-09-07T11:36:58.746Z,5.90
2022-09-07T11:39:39.663Z,1.50
2022-09-07T11:45:04.080Z,1.40
2022-09-07T11:47:44.162Z,1.30
2022-09-07T11:50:20.136Z,1.52
2022-09-07T11:52:53.549Z,1.50
2022-09-07T11:55:25.785Z,1.52
2022-09-07T11:58:13.336Z,1.30
2022-09-07T12:00:40.722Z,1.23
2022-09-07T12:03:24.275Z,1.40
2022-09-07T12:05:54.908Z,1.30
2022-09-07T12:08:31.289Z,1.33
2022-09-07T12:11:22.586Z,1.40
2022-09-07T12:14:03.966Z,1.50
2022-09-07T12:16:31.254Z,1.50
2022-09-07T12:19:12.240Z,1.60
2022-09-07T12:21:43.984Z,1.30
2022-09-07T12:24:30.053Z,1.30
2022-09-07T12:26:58.157Z,1.20
2022-09-07T12:29:26.616Z,1.38
2022-09-07T12:31:59.667Z,1.30
2022-09-07T12:34:34.206Z,1.30
2022-09-07T12:37:10.107Z,1.70
2022-09-07T12:39:43.941Z,1.50
2022-09-07T12:42:33.154Z,1.30
2022-09-07T12:45:20.196Z,1.33
2022-09-07T12:47:57.275Z,1.70
2022-09-07T12:50:38.261Z,1.40
2022-09-07T12:53:26.145Z,1.20
2022-09-07T12:56:16.354Z,1.27
2022-09-07T12:58:56.765Z,1.17
2022-09-07T13:01:42.317Z,1.50
2022-09-07T13:04:15.938Z,1.48
2022-09-07T13:07:02.873Z,1.40
2022-09-07T13:09:40.469Z,1.15
2022-09-07T13:15:41.459Z,1.65
2022-09-07T13:18:27.671Z,1.20
2022-09-07T13:21:10.933Z,1.38
2022-09-07T13:23:39.081Z,1.40
2022-09-07T13:26:07.396Z,2.00
2022-09-07T13:28:37.781Z,1.40
2022-09-07T13:31:23.494Z,1.20
2022-09-07T13:33:51.767Z,1.20
2022-09-07T13:36:35.435Z,2.22
2022-09-07T13:39:06.501Z,1.38
2022-09-07T13:41:37.173Z,1.20
2022-09-07T13:44:06.016Z,1.30
2022-09-07T13:46:41.550Z,1.10
2022-09-07T13:49:27.608Z,1.40
2022-09-07T13:52:04.299Z,1.60
2022-09-07T13:54:35.087Z,1.40
2022-09-07T13:57:20.845Z,1.20
2022-09-07T13:59:50.665Z,1.27
2022-09-07T14:02:23.417Z,1.20
2022-09-07T14:04:52.335Z,1.10
2022-09-07T14:07:29.274Z,1.30
2022-09-07T14:10:07.140Z,1.70
2022-09-07T14:12:41.787Z,1.30
2022-09-07T14:15:10.827Z,1.10
2022-09-07T14:17:38.268Z,1.75
2022-09-07T14:20:07.424Z,1.40
2022-09-07T14:22:35.667Z,1.58
2022-09-07T14:25:04.499Z,1.38
2022-09-07T14:27:35.093Z,1.33
2022-09-07T14:30:20.969Z,1.30
2022-09-07T14:32:49.946Z,1.10
2022-09-07T14:35:22.300Z,1.48
2022-09-07T14:37:50.378Z,1.42
2022-09-07T14:40:22.196Z,1.20
2022-09-07T14:42:50.258Z,1.70
2022-09-07T14:45:23.930Z,1.10
2022-09-07T14:47:52.590Z,1.38
2022-09-07T14:50:22.395Z,1.20
2022-09-07T14:55:40.099Z,1.25
2022-09-07T14:58:11.102Z,1.30
2022-09-07T15:00:39.135Z,1.20
2022-09-07T15:03:25.366Z,1.48
2022-09-07T15:05:53.995Z,1.27
2022-09-07T15:08:41.069Z,1.42
2022-09-07T15:13:59.139Z,1.30
2022-09-07T15:16:34.193Z,1.40
2022-09-07T15:19:16.758Z,1.38
2022-09-07T15:21:44.294Z,1.60
2022-09-07T15:24:11.991Z,1.33
2022-09-07T15:29:30.169Z,1.48
2022-09-07T15:32:04.010Z,1.60
2022-09-07T15:34:32.456Z,1.60
2022-09-07T15:37:01.782Z,1.75
2022-09-07T15:39:30.270Z,1.42
2022-09-07T15:42:00.453Z,1.40
2022-09-07T15:44:45.257Z,1.40
2022-09-07T15:50:00.202Z,1.70
2022-09-07T15:52:28.142Z,1.45
2022-09-07T15:54:59.353Z,1.60
2022-09-07T16:00:15.052Z,1.50
2022-09-07T16:05:31.637Z,1.58
2022-09-07T16:10:53.518Z,1.40
2022-09-07T16:13:24.007Z,1.33
2022-09-07T16:15:51.611Z,1.63
2022-09-07T16:18:19.090Z,1.50
2022-09-07T16:20:52.474Z,2.40
2022-09-07T16:23:20.216Z,2.03
2022-09-07T16:25:57.835Z,1.48
2022-09-07T16:28:25.125Z,1.63
2022-09-07T16:30:52.455Z,1.73
2022-09-07T16:33:20.052Z,1.40
2022-09-07T16:36:00.867Z,1.35
2022-09-07T16:38:44.919Z,1.52
2022-09-07T16:41:16.670Z,1.73
2022-09-07T16:43:44.215Z,1.80
2022-09-07T16:46:14.311Z,1.58
2022-09-07T16:48:41.824Z,1.67
2022-09-07T16:51:10.487Z,1.58
2022-09-07T16:53:38.199Z,1.70
2022-09-07T16:56:08.139Z,1.80
2022-09-07T16:58:37.413Z,1.50
2022-09-07T17:01:05.991Z,1.70
2022-09-07T17:03:33.897Z,1.52
2022-09-07T17:06:02.046Z,1.50
2022-09-07T17:08:29.725Z,1.60
2022-09-07T17:11:03.768Z,1.17
2022-09-07T17:13:35.265Z,2.10
2022-09-07T17:16:10.741Z,1.40
2022-09-07T17:21:29.326Z,1.60
2022-09-07T17:23:56.679Z,2.08
2022-09-07T17:26:26.877Z,2.42
2022-09-07T17:28:56.498Z,1.85
2022-09-07T17:34:13.948Z,1.75
2022-09-07T17:36:42.575Z,1.80
2022-09-07T17:39:18.786Z,1.77
2022-09-07T17:41:47.384Z,1.67
2022-09-07T17:44:14.797Z,1.58
2022-09-07T17:46:42.313Z,1.52
2022-09-07T17:49:12.489Z,1.70
2022-09-07T17:51:39.878Z,1.70
2022-09-07T17:54:09.950Z,1.75
2022-09-07T17:56:38.728Z,1.60
2022-09-07T18:01:56.707Z,1.98
2022-09-07T18:04:24.738Z,1.95
2022-09-07T18:06:52.444Z,3.17
2022-09-07T18:09:20.052Z,2.47
2022-09-07T18:11:49.760Z,2.40
2022-09-07T18:14:18.276Z,1.92
2022-09-07T18:16:46.313Z,1.92
2022-09-07T18:19:14.015Z,2.10
2022-09-07T18:21:42.495Z,1.88
2022-09-07T18:24:16.754Z,2.35
2022-09-07T18:26:49.662Z,1.85
2022-09-07T18:29:28.608Z,2.53
2022-09-07T18:31:58.696Z,2.20
2022-09-07T18:34:26.278Z,2.70
2022-09-07T18:36:55.196Z,2.63
2022-09-07T18:39:22.837Z,2.00
2022-09-07T18:41:50.253Z,2.70
2022-09-07T18:47:06.557Z,2.58
2022-09-07T18:49:34.452Z,2.75
2022-09-07T18:54:50.334Z,2.65
2022-09-07T18:57:18.181Z,2.80
2022-09-07T18:59:45.718Z,2.60
2022-09-07T19:02:14.259Z,2.42
2022-09-07T19:07:30.179Z,2.67
2022-09-07T19:09:58.339Z,2.75
2022-09-07T19:12:26.152Z,2.60
2022-09-07T19:14:53.595Z,2.50
2022-09-07T19:17:21.063Z,2.50
2022-09-07T19:19:48.735Z,2.53
2022-09-07T19:22:16.121Z,2.22
2022-09-07T19:24:43.595Z,2.65
2022-09-07T19:27:10.963Z,2.20
2022-09-07T19:29:38.308Z,2.25
2022-09-07T19:32:07.017Z,2.20
2022-09-07T19:34:38.551Z,2.53
2022-09-07T19:37:06.927Z,2.20
2022-09-07T19:39:35.806Z,2.33
2022-09-07T19:42:04.245Z,2.22
2022-09-07T19:44:32.660Z,2.65
2022-09-07T19:47:01.043Z,2.22
2022-09-07T19:49:28.793Z,2.47
2022-09-07T19:51:56.073Z,2.45
2022-09-07T19:54:23.335Z,2.47
2022-09-07T19:56:50.978Z,2.28
2022-09-07T19:59:19.812Z,2.40
2022-09-07T20:01:49.474Z,2.60
2022-09-07T20:04:24.009Z,3.08
2022-09-07T20:06:52.466Z,2.75
2022-09-07T20:09:20.600Z,2.88
2022-09-07T20:11:48.167Z,2.80
2022-09-07T20:14:19.203Z,2.88
2022-09-07T20:16:47.000Z,2.83
2022-09-07T20:19:15.061Z,3.35
2022-09-07T20:21:43.200Z,3.05
2022-09-07T20:24:14.574Z,3.22
2022-09-07T20:26:42.530Z,2.90
2022-09-07T20:29:27.312Z,3.15
2022-09-07T20:31:56.595Z,3.13
2022-09-07T20:34:24.102Z,3.88
2022-09-07T20:36:51.482Z,3.40
2022-09-07T20:39:18.896Z,3.15
2022-09-07T20:41:46.486Z,3.55
2022-09-07T20:44:14.343Z,3.55
2022-09-07T20:46:41.917Z,4.05
2022-09-07T20:49:09.908Z,3.33
2022-09-07T20:51:37.183Z,3.08
2022-09-07T20:54:04.483Z,3.53
2022-09-07T20:56:32.128Z,3.60
2022-09-07T20:59:00.481Z,3.72
2022-09-07T21:01:28.140Z,3.15
2022-09-07T21:03:56.654Z,3.33
2022-09-07T21:06:24.802Z,3.15
2022-09-07T21:08:52.711Z,3.70
2022-09-07T21:11:19.978Z,3.90
2022-09-07T21:13:47.446Z,2.83
2022-09-07T21:16:16.401Z,2.85
2022-09-07T21:18:44.818Z,3.17
2022-09-07T21:21:20.766Z,3.60
2022-09-07T21:23:48.600Z,3.60
2022-09-07T21:26:20.384Z,3.60
2022-09-07T21:28:47.710Z,3.78
2022-09-07T21:31:15.587Z,3.90
2022-09-07T21:33:42.896Z,3.83
2022-09-07T21:36:11.145Z,3.60
2022-09-07T21:38:39.353Z,4.07
2022-09-07T21:41:10.433Z,3.17
2022-09-07T21:43:38.140Z,3.60
2022-09-07T21:46:09.503Z,3.67
2022-09-07T21:48:37.323Z,3.63
2022-09-07T21:51:04.915Z,3.80
2022-09-07T21:53:32.633Z,3.70
2022-09-07T21:56:00.974Z,3.33
2022-09-07T21:58:28.715Z,3.60
2022-09-07T22:00:57.157Z,3.80
2022-09-07T22:03:25.540Z,3.30
2022-09-07T22:05:53.167Z,3.17
2022-09-07T22:08:20.798Z,3.53
2022-09-07T22:10:48.103Z,3.50
2022-09-07T22:13:15.462Z,3.47
2022-09-07T22:15:42.994Z,3.28
2022-09-07T22:18:12.461Z,3.42
2022-09-07T22:20:42.743Z,3.75
2022-09-07T22:23:10.011Z,3.67
2022-09-07T22:25:37.297Z,3.55
2022-09-07T22:28:04.731Z,3.22
2022-09-07T22:30:31.987Z,3.78
2022-09-07T22:33:02.788Z,3.58
2022-09-07T22:35:30.146Z,3.47
2022-09-07T22:37:57.399Z,4.20
2022-09-07T22:40:24.919Z,3.05
2022-09-07T22:42:52.206Z,3.50
2022-09-07T22:45:19.443Z,3.35
2022-09-07T22:47:47.307Z,3.70
2022-09-07T22:50:14.762Z,3.50
2022-09-07T22:52:42.009Z,3.63
2022-09-07T22:55:09.659Z,3.60
2022-09-07T22:57:37.197Z,3.72
2022-09-07T23:00:05.629Z,3.55
2022-09-07T23:02:32.983Z,3.20
2022-09-07T23:05:00.381Z,3.30
2022-09-07T23:07:27.954Z,3.40
2022-09-07T23:09:55.395Z,3.28
2022-09-07T23:12:22.617Z,3.38
2022-09-07T23:14:49.976Z,3.50
2022-09-07T23:17:17.754Z,4.25
2022-09-07T23:19:45.440Z,3.70
2022-09-07T23:22:12.893Z,3.30
2022-09-07T23:24:41.651Z,2.75
2022-09-07T23:27:09.259Z,2.50
2022-09-07T23:29:36.506Z,2.65
2022-09-07T23:32:04.021Z,2.60
2022-09-07T23:34:31.388Z,2.50
2022-09-07T23:36:58.697Z,2.40
2022-09-07T23:39:26.132Z,2.60
2022-09-07T23:41:53.361Z,2.40
2022-09-07T23:44:20.560Z,2.30
2022-09-07T23:46:47.869Z,2.28
2022-09-07T23:49:15.423Z,2.30
2022-09-07T23:51:42.653Z,2.38
2022-09-07T23:54:10.003Z,2.65
2022-09-07T23:56:38.255Z,2.22
2022-09-07T23:59:06.366Z,2.22
